Time;durP1;ratioP1;P1;durP2;ratioP2;P2;SDS_P1;SDS_P2;PMS_P1;PMS_P2;Temp;Humidity;BMP_temperature;BMP_pressure;BME280_temperature;BME280_humidity;BME280_pressure;Samples;Min_cycle;Max_cycle;Signal;HPM_P1;HPM_P2
2022/04/09 00:00:26;;;;;;;4.50;3.03;;;3.90;99.90;;;;;;5074558;28;20197;-54
2022/04/09 00:02:53;;;;;;;9.18;3.25;;;3.90;99.90;;;;;;5074558;28;20216;-54
2022/04/09 00:05:20;;;;;;;8.65;3.50;;;3.90;99.90;;;;;;5074732;28;20731;-53
2022/04/09 00:07:47;;;;;;;6.22;3.05;;;3.80;99.90;;;;;;5074727;28;20208;-54
2022/04/09 00:10:15;;;;;;;5.40;3.03;;;3.80;99.90;;;;;;5074855;28;20201;-54
2022/04/09 00:12:45;;;;;;;8.95;3.92;;;3.80;99.90;;;;;;5075205;28;20205;-54
2022/04/09 00:15:14;;;;;;;8.43;2.83;;;3.80;99.90;;;;;;5074859;28;20629;-54
2022/04/09 00:17:42;;;;;;;4.85;2.72;;;3.80;99.90;;;;;;5074197;28;20197;-55
2022/04/09 00:20:11;;;;;;;5.47;3.70;;;3.80;99.90;;;;;;5073748;28;20208;-54
2022/04/09 00:22:38;;;;;;;7.25;3.95;;;3.80;99.90;;;;;;5074356;28;20212;-54
2022/04/09 00:25:07;;;;;;;3.70;2.97;;;3.80;99.90;;;;;;5075558;28;20216;-53
2022/04/09 00:27:34;;;;;;;4.38;3.10;;;3.80;99.90;;;;;;5077341;28;20205;-54
2022/04/09 00:30:02;;;;;;;5.55;3.38;;;3.70;99.90;;;;;;5077933;28;20212;-54
2022/04/09 00:32:30;;;;;;;7.05;2.80;;;3.70;99.90;;;;;;5077741;28;20200;-53
2022/04/09 00:34:58;;;;;;;6.75;3.40;;;3.70;99.90;;;;;;5077230;28;20221;-54
2022/04/09 00:37:25;;;;;;;7.20;2.40;;;3.60;99.90;;;;;;5077620;28;20205;-54
2022/04/09 00:39:52;;;;;;;7.20;3.10;;;3.60;99.90;;;;;;5077089;28;20205;-54
2022/04/09 00:42:20;;;;;;;8.00;3.22;;;3.60;99.90;;;;;;5076971;28;20744;-53
2022/04/09 00:44:47;;;;;;;8.32;3.08;;;3.60;99.90;;;;;;5076699;28;20252;-55
2022/04/09 00:47:15;;;;;;;9.45;2.78;;;3.60;99.90;;;;;;5077147;28;20201;-53
2022/04/09 00:49:43;;;;;;;6.93;2.90;;;3.60;99.90;;;;;;5077228;28;20208;-54
2022/04/09 00:52:11;;;;;;;8.35;2.70;;;3.60;99.90;;;;;;5076666;28;20208;-55
2022/04/09 00:54:40;;;;;;;13.45;3.50;;;3.60;99.90;;;;;;5076846;28;20248;-54
2022/04/09 00:57:08;;;;;;;7.03;2.70;;;3.60;99.90;;;;;;5077489;28;20227;-54
2022/04/09 00:59:37;;;;;;;11.32;3.63;;;3.60;99.90;;;;;;5077563;28;20205;-54
2022/04/09 01:02:05;;;;;;;6.15;2.90;;;3.60;99.90;;;;;;5078560;28;20212;-54
2022/04/09 01:04:33;;;;;;;5.50;2.60;;;3.60;99.90;;;;;;5077559;28;20225;-55
2022/04/09 01:07:01;;;;;;;6.18;2.63;;;3.60;99.90;;;;;;5078030;28;20204;-54
2022/04/09 01:09:28;;;;;;;11.20;3.10;;;3.60;99.90;;;;;;5077003;28;20205;-53
2022/04/09 01:11:57;;;;;;;6.32;3.05;;;3.70;99.90;;;;;;5076645;28;20205;-53
2022/04/09 01:14:24;;;;;;;5.40;2.47;;;3.70;99.90;;;;;;5076144;28;20224;-53
2022/04/09 01:16:51;;;;;;;6.80;2.50;;;3.80;99.90;;;;;;5076135;28;20205;-54
2022/04/09 01:19:18;;;;;;;6.00;2.97;;;3.80;99.90;;;;;;5076106;28;20204;-53
2022/04/09 01:21:48;;;;;;;8.98;3.15;;;3.80;99.90;;;;;;5076412;28;20216;-52
2022/04/09 01:24:16;;;;;;;8.10;3.78;;;3.80;99.90;;;;;;5076330;28;20295;-53
2022/04/09 01:26:44;;;;;;;7.13;2.55;;;3.90;99.90;;;;;;5076117;28;20212;-53
2022/04/09 01:29:11;;;;;;;8.40;2.83;;;3.90;99.90;;;;;;5076045;28;20201;-51
2022/04/09 01:31:38;;;;;;;9.65;2.53;;;3.90;99.90;;;;;;5075862;28;20595;-54
2022/04/09 01:34:05;;;;;;;8.88;2.70;;;4.00;99.90;;;;;;5075634;28;20201;-53
2022/04/09 01:36:32;;;;;;;7.95;2.85;;;4.00;99.90;;;;;;5075071;28;20201;-53
2022/04/09 01:38:59;;;;;;;6.60;2.75;;;4.00;99.90;;;;;;5075846;28;20208;-54
2022/04/09 01:41:27;;;;;;;7.47;2.90;;;4.00;99.90;;;;;;5075427;28;20220;-53
2022/04/09 01:43:54;;;;;;;7.80;3.05;;;4.00;99.90;;;;;;5075310;28;20201;-54
2022/04/09 01:46:21;;;;;;;7.38;2.80;;;4.00;99.90;;;;;;5099846;22;20240;-56
2022/04/09 01:48:49;;;;;;;6.68;3.10;;;3.90;99.90;;;;;;5076262;28;20201;-55
2022/04/09 01:51:16;;;;;;;5.70;2.50;;;3.90;99.90;;;;;;5076275;28;20212;-57
2022/04/09 01:53:43;;;;;;;4.25;2.78;;;3.90;99.90;;;;;;5076002;28;20556;-55
2022/04/09 01:56:10;;;;;;;5.57;2.55;;;3.80;99.90;;;;;;5075561;28;20704;-55
2022/04/09 01:58:38;;;;;;;4.45;2.72;;;3.70;99.90;;;;;;5075718;28;20201;-55
2022/04/09 02:01:06;;;;;;;6.05;2.65;;;3.70;99.90;;;;;;5075279;28;20212;-57
2022/04/09 02:03:34;;;;;;;5.85;2.88;;;3.70;99.90;;;;;;5075504;28;20233;-55
2022/04/09 02:06:01;;;;;;;9.15;5.00;;;3.60;99.90;;;;;;5075324;28;20248;-55
2022/04/09 02:08:29;;;;;;;9.10;2.97;;;3.60;99.90;;;;;;5075306;28;20201;-55
2022/04/09 02:10:56;;;;;;;8.10;2.72;;;3.60;99.90;;;;;;5075048;28;20201;-56
2022/04/09 02:13:23;;;;;;;7.35;3.20;;;3.60;99.90;;;;;;5075178;28;20208;-55
2022/04/09 02:15:52;;;;;;;8.10;3.60;;;3.60;99.90;;;;;;5075192;28;20229;-55
2022/04/09 02:18:19;;;;;;;6.55;3.20;;;3.60;99.90;;;;;;5075390;28;20338;-55
2022/04/09 02:20:46;;;;;;;9.35;2.92;;;3.50;99.90;;;;;;5075120;28;20212;-55
2022/04/09 02:23:13;;;;;;;7.68;2.65;;;3.60;99.90;;;;;;5075316;28;20205;-56
2022/04/09 02:25:40;;;;;;;7.72;3.90;;;3.60;99.90;;;;;;5075369;28;20228;-57
2022/04/09 02:28:07;;;;;;;5.35;2.50;;;3.70;99.90;;;;;;5074780;28;20197;-55
2022/04/09 02:30:34;;;;;;;13.18;3.42;;;3.70;99.90;;;;;;5074553;28;20209;-56
2022/04/09 02:33:03;;;;;;;7.60;3.08;;;3.70;99.90;;;;;;5074522;28;20197;-56
2022/04/09 02:35:30;;;;;;;8.50;2.70;;;3.80;99.90;;;;;;5074749;28;20229;-56
2022/04/09 02:37:57;;;;;;;9.95;3.78;;;3.80;99.90;;;;;;5074389;28;20205;-55
2022/04/09 02:40:25;;;;;;;4.63;2.72;;;3.80;99.90;;;;;;5074704;28;20205;-57
2022/04/09 02:42:52;;;;;;;4.90;3.17;;;3.80;99.90;;;;;;5074356;28;20201;-56
2022/04/09 02:45:20;;;;;;;6.95;2.80;;;3.80;99.90;;;;;;5074116;28;20225;-55
2022/04/09 02:47:47;;;;;;;8.35;3.35;;;3.80;99.90;;;;;;5073406;28;20235;-56
2022/04/09 02:50:16;;;;;;;9.65;2.75;;;3.80;99.90;;;;;;5073861;28;20216;-55
2022/04/09 02:52:43;;;;;;;10.02;2.92;;;3.70;99.90;;;;;;5074487;28;20239;-56
2022/04/09 02:55:10;;;;;;;6.72;2.75;;;3.70;99.90;;;;;;5074260;28;20225;-56
2022/04/09 02:57:40;;;;;;;13.82;3.30;;;3.70;99.90;;;;;;5074230;28;20224;-56
2022/04/09 03:00:11;;;;;;;4.40;2.60;;;3.70;99.90;;;;;;5074038;28;20673;-56
2022/04/09 03:02:38;;;;;;;6.82;3.20;;;3.70;99.90;;;;;;5074261;28;20203;-56
2022/04/09 03:05:06;;;;;;;9.80;3.97;;;3.70;99.90;;;;;;5074088;28;20701;-55
2022/04/09 03:07:35;;;;;;;8.38;3.63;;;3.70;99.90;;;;;;5074545;28;20565;-56
2022/04/09 03:10:02;;;;;;;7.50;2.80;;;3.70;99.90;;;;;;5074267;28;20201;-54
2022/04/09 03:12:29;;;;;;;7.60;3.40;;;3.70;99.90;;;;;;5073996;28;20236;-55
2022/04/09 03:14:57;;;;;;;6.82;3.20;;;3.70;99.90;;;;;;5074000;28;20247;-56
2022/04/09 03:17:24;;;;;;;8.63;3.10;;;3.70;99.90;;;;;;5073651;28;20197;-55
2022/04/09 03:19:51;;;;;;;7.22;3.08;;;3.80;99.90;;;;;;5074294;28;20209;-56
2022/04/09 03:22:18;;;;;;;7.78;2.88;;;3.80;99.90;;;;;;5073826;28;20201;-55
2022/04/09 03:24:47;;;;;;;9.65;3.42;;;3.80;99.90;;;;;;5073420;28;20225;-56
2022/04/09 03:27:14;;;;;;;6.75;3.10;;;3.80;99.90;;;;;;5073590;28;20205;-55
2022/04/09 03:29:41;;;;;;;9.27;3.00;;;3.80;99.90;;;;;;5074522;28;20208;-56
2022/04/09 03:32:08;;;;;;;8.55;2.80;;;3.70;99.90;;;;;;5073620;28;20208;-56
2022/04/09 03:34:36;;;;;;;7.10;3.22;;;3.70;99.90;;;;;;5073199;28;20291;-56
2022/04/09 03:37:03;;;;;;;6.82;3.47;;;3.70;99.90;;;;;;5073264;28;20684;-55
2022/04/09 03:39:31;;;;;;;8.95;3.00;;;3.60;99.90;;;;;;5073610;28;20205;-56
2022/04/09 03:41:59;;;;;;;8.40;3.50;;;3.50;99.90;;;;;;5073690;28;20205;-57
2022/04/09 03:44:27;;;;;;;6.15;2.50;;;3.50;99.90;;;;;;5073591;28;20232;-57
2022/04/09 03:46:59;;;;;;;7.28;2.80;;;3.50;99.90;;;;;;5073677;28;20188;-56
2022/04/09 03:49:26;;;;;;;6.20;3.13;;;3.50;99.90;;;;;;5073839;28;20186;-56
2022/04/09 03:51:53;;;;;;;9.80;3.00;;;3.50;99.90;;;;;;5074265;28;20212;-56
2022/04/09 03:54:20;;;;;;;8.90;3.30;;;3.50;99.90;;;;;;5074083;28;20201;-57
2022/04/09 03:56:47;;;;;;;8.90;2.92;;;3.50;99.90;;;;;;5074578;28;20217;-57
2022/04/09 03:59:16;;;;;;;7.75;3.00;;;3.50;99.90;;;;;;5073864;28;20212;-56
2022/04/09 04:01:46;;;;;;;6.72;2.45;;;3.50;99.90;;;;;;5074170;28;20215;-54
2022/04/09 04:04:13;;;;;;;8.32;3.67;;;3.40;99.90;;;;;;5074079;28;20295;-56
2022/04/09 04:09:36;;;;;;;8.50;3.28;;;3.40;99.90;;;;;;5132419;27;20607;-56
2022/04/09 04:12:03;;;;;;;21.00;3.30;;;3.40;99.90;;;;;;5131532;27;20205;-55
2022/04/09 04:14:30;;;;;;;4.70;3.28;;;3.40;99.90;;;;;;5131385;27;20199;-55
2022/04/09 04:16:58;;;;;;;8.15;3.03;;;3.40;99.90;;;;;;5131933;27;20223;-56
2022/04/09 04:19:25;;;;;;;5.88;2.65;;;3.40;99.90;;;;;;5132474;27;20210;-55
2022/04/09 04:21:52;;;;;;;7.47;2.95;;;3.40;99.90;;;;;;5132080;27;20199;-56
2022/04/09 04:24:19;;;;;;;7.07;3.42;;;3.30;99.90;;;;;;5131877;27;20199;-56
2022/04/09 04:26:47;;;;;;;11.07;3.58;;;3.30;99.90;;;;;;5132822;27;20203;-55
2022/04/09 04:29:14;;;;;;;6.22;3.58;;;3.30;99.90;;;;;;5132587;27;20219;-56
2022/04/09 04:31:41;;;;;;;3.92;2.90;;;3.30;99.90;;;;;;5132084;27;20557;-55
2022/04/09 04:34:08;;;;;;;11.40;3.38;;;3.30;99.90;;;;;;5131922;27;20226;-56
2022/04/09 04:36:36;;;;;;;6.07;3.10;;;3.30;99.90;;;;;;5131449;27;20392;-56
2022/04/09 04:39:03;;;;;;;5.85;2.78;;;3.40;99.90;;;;;;5131820;27;20199;-56
2022/04/09 04:41:30;;;;;;;9.02;3.20;;;3.40;99.90;;;;;;5131604;27;20210;-56
2022/04/09 04:43:58;;;;;;;7.80;3.10;;;3.40;99.90;;;;;;5131389;27;20207;-55
2022/04/09 04:46:25;;;;;;;5.93;2.42;;;3.40;99.90;;;;;;5131393;27;20677;-55
2022/04/09 04:48:52;;;;;;;8.15;4.22;;;3.40;99.90;;;;;;5131091;27;20289;-56
2022/04/09 04:51:19;;;;;;;7.35;2.67;;;3.50;99.90;;;;;;5130981;27;20226;-55
2022/04/09 04:53:46;;;;;;;4.10;2.80;;;3.50;99.90;;;;;;5130850;27;20209;-55
2022/04/09 04:56:14;;;;;;;8.85;3.40;;;3.50;99.90;;;;;;5130358;27;20215;-55
2022/04/09 04:58:41;;;;;;;7.18;3.65;;;3.50;99.90;;;;;;5130523;27;20231;-55
2022/04/09 05:01:09;;;;;;;8.25;3.13;;;3.50;99.90;;;;;;5130767;27;20206;-55
2022/04/09 05:03:39;;;;;;;4.90;3.17;;;3.50;99.90;;;;;;5130463;27;20574;-55
2022/04/09 05:06:07;;;;;;;5.00;2.50;;;3.50;99.90;;;;;;5130363;27;20219;-55
2022/04/09 05:08:34;;;;;;;13.43;3.50;;;3.50;99.90;;;;;;5130273;27;20305;-54
2022/04/09 05:11:01;;;;;;;3.50;2.67;;;3.50;99.90;;;;;;5130562;27;20227;-54
2022/04/09 05:13:28;;;;;;;4.90;3.05;;;3.60;99.90;;;;;;5130547;27;20286;-55
2022/04/09 05:15:56;;;;;;;8.65;3.10;;;3.70;99.90;;;;;;5130411;27;20330;-55
2022/04/09 05:18:24;;;;;;;8.35;2.80;;;3.70;99.90;;;;;;5130616;27;20683;-55
2022/04/09 05:20:52;;;;;;;5.25;2.25;;;3.80;99.90;;;;;;5117240;27;20686;-53
2022/04/09 05:23:19;;;;;;;6.05;3.17;;;3.80;99.90;;;;;;5117100;28;20233;-56
2022/04/09 05:25:46;;;;;;;4.90;2.65;;;3.80;99.90;;;;;;5116747;27;20224;-55
2022/04/09 05:28:13;;;;;;;5.80;3.60;;;3.90;99.90;;;;;;5116706;28;20251;-55
2022/04/09 05:30:44;;;;;;;2.30;1.83;;;3.90;99.90;;;;;;5117331;28;20667;-55
2022/04/09 05:33:11;;;;;;;7.82;3.30;;;4.00;99.90;;;;;;5117084;28;20558;-54
2022/04/09 05:35:40;;;;;;;8.18;3.72;;;4.00;99.90;;;;;;5117126;28;20564;-53
2022/04/09 05:38:09;;;;;;;7.03;4.07;;;4.10;99.90;;;;;;5119385;28;20267;-55
2022/04/09 05:40:36;;;;;;;13.98;3.78;;;4.10;99.90;;;;;;5122756;27;20663;-54
2022/04/09 05:43:03;;;;;;;9.10;3.92;;;4.10;99.90;;;;;;5119867;28;20239;-54
2022/04/09 05:45:31;;;;;;;4.70;3.05;;;4.10;99.90;;;;;;5118327;28;20219;-54
2022/04/09 05:47:58;;;;;;;8.07;3.00;;;4.20;99.90;;;;;;5118113;28;20779;-55
2022/04/09 05:50:25;;;;;;;8.68;3.05;;;4.20;99.90;;;;;;5118398;28;20595;-54
2022/04/09 05:53:03;;;;;;;7.95;3.47;;;4.30;99.90;;;;;;5119010;28;20683;-55
2022/04/09 05:55:31;;;;;;;8.45;3.05;;;4.30;99.90;;;;;;5119532;28;20227;-54
2022/04/09 05:57:59;;;;;;;12.40;3.45;;;4.40;99.90;;;;;;5123320;28;20212;-55
2022/04/09 06:00:27;;;;;;;5.93;3.03;;;4.50;99.90;;;;;;5118047;28;20590;-55
2022/04/09 06:02:54;;;;;;;7.00;3.55;;;4.40;99.90;;;;;;5118276;28;20195;-54
2022/04/09 06:05:21;;;;;;;7.15;2.38;;;4.50;99.90;;;;;;5118013;28;20219;-55
2022/04/09 06:07:48;;;;;;;7.13;3.25;;;4.60;99.90;;;;;;5116751;28;20311;-55
2022/04/09 06:10:17;;;;;;;7.25;2.55;;;4.60;99.90;;;;;;5116387;28;20222;-55
2022/04/09 06:12:44;;;;;;;4.97;3.25;;;4.70;99.90;;;;;;5116576;28;20286;-55
2022/04/09 06:15:12;;;;;;;6.97;2.50;;;4.80;99.90;;;;;;5116603;28;20583;-54
2022/04/09 06:17:39;;;;;;;3.90;2.85;;;4.90;99.90;;;;;;5123634;28;20258;-56
2022/04/09 06:20:08;;;;;;;8.40;2.50;;;5.00;99.90;;;;;;5131600;28;20238;-55
2022/04/09 06:22:35;;;;;;;7.15;3.58;;;5.00;99.90;;;;;;5132530;28;20208;-56
2022/04/09 06:25:02;;;;;;;10.55;3.50;;;5.00;99.90;;;;;;5132718;28;20223;-56
2022/04/09 06:27:33;;;;;;;5.10;3.00;;;5.00;99.90;;;;;;5131982;28;20204;-55
2022/04/09 06:30:03;;;;;;;5.90;2.75;;;5.00;99.90;;;;;;5129730;28;20215;-56
2022/04/09 06:32:30;;;;;;;6.50;2.33;;;5.10;99.90;;;;;;5129345;27;20302;-55
2022/04/09 06:34:57;;;;;;;7.65;2.53;;;5.10;99.90;;;;;;5132593;28;20224;-56
2022/04/09 06:37:24;;;;;;;9.38;2.65;;;5.20;99.90;;;;;;5129566;28;20211;-56
2022/04/09 06:39:51;;;;;;;6.72;3.03;;;5.30;99.90;;;;;;5121716;28;20257;-55
2022/04/09 06:42:18;;;;;;;7.05;2.90;;;5.40;99.90;;;;;;5119297;28;20204;-55
2022/04/09 06:44:47;;;;;;;5.22;2.80;;;5.40;99.90;;;;;;5119077;28;20230;-55
2022/04/09 06:47:14;;;;;;;4.40;2.78;;;5.40;99.90;;;;;;5121829;28;20234;-56
2022/04/09 06:49:41;;;;;;;5.13;2.47;;;5.50;99.90;;;;;;5121344;28;20219;-55
2022/04/09 06:52:08;;;;;;;8.90;2.55;;;5.60;99.90;;;;;;5118637;28;20203;-54
2022/04/09 06:54:35;;;;;;;5.55;2.80;;;5.60;99.90;;;;;;5116466;28;20640;-55
2022/04/09 06:57:02;;;;;;;10.40;3.63;;;5.70;99.90;;;;;;5116298;28;20200;-55
2022/04/09 06:59:29;;;;;;;3.85;2.05;;;5.70;99.90;;;;;;5115262;28;20202;-56
2022/04/09 07:01:57;;;;;;;8.07;2.47;;;5.80;99.90;;;;;;5115333;28;20203;-56
2022/04/09 07:04:24;;;;;;;5.40;2.42;;;5.80;99.90;;;;;;5116257;28;20219;-54
2022/04/09 07:06:52;;;;;;;5.80;2.47;;;5.80;99.90;;;;;;5116211;28;20721;-55
2022/04/09 07:09:19;;;;;;;4.35;2.63;;;5.70;99.90;;;;;;5115750;28;20223;-55
2022/04/09 07:11:46;;;;;;;5.15;1.92;;;5.80;99.90;;;;;;5114791;27;20225;-55
2022/04/09 07:14:13;;;;;;;5.35;1.80;;;5.80;99.90;;;;;;5115002;28;20208;-55
2022/04/09 07:16:40;;;;;;;6.22;2.47;;;5.90;99.90;;;;;;5115027;28;20231;-56
2022/04/09 07:19:10;;;;;;;6.13;3.10;;;6.00;99.90;;;;;;5115324;28;20218;-56
2022/04/09 07:21:38;;;;;;;7.47;2.30;;;6.10;99.90;;;;;;5116798;28;20283;-55
2022/04/09 07:24:05;;;;;;;7.78;2.22;;;6.20;99.90;;;;;;5115856;28;20224;-56
2022/04/09 07:26:32;;;;;;;7.75;2.20;;;6.30;99.90;;;;;;5115945;28;20215;-56
2022/04/09 07:28:59;;;;;;;8.77;2.25;;;6.40;99.90;;;;;;5115828;28;20250;-54
2022/04/09 07:31:26;;;;;;;6.63;2.35;;;6.40;99.90;;;;;;5115139;28;20211;-56
2022/04/09 07:33:54;;;;;;;7.30;3.30;;;6.50;99.60;;;;;;5114896;28;20214;-56
2022/04/09 07:36:22;;;;;;;10.48;2.40;;;6.70;98.70;;;;;;5115290;28;20297;-55
2022/04/09 07:38:49;;;;;;;5.13;2.03;;;6.80;97.40;;;;;;5114679;28;20563;-56
2022/04/09 07:41:16;;;;;;;3.35;2.10;;;6.80;97.50;;;;;;5113798;28;20203;-56
2022/04/09 07:43:43;;;;;;;7.25;2.30;;;6.80;97.00;;;;;;5113717;28;20555;-54
2022/04/09 07:46:10;;;;;;;9.07;2.45;;;7.00;96.50;;;;;;5147869;22;20230;-60
2022/04/09 07:48:37;;;;;;;6.20;2.25;;;7.10;95.60;;;;;;5113762;28;20219;-60
2022/04/09 07:51:04;;;;;;;6.80;2.22;;;7.20;94.70;;;;;;5114175;28;20211;-61
2022/04/09 07:53:33;;;;;;;3.72;2.60;;;7.20;94.60;;;;;;5114238;28;20203;-60
2022/04/09 07:56:00;;;;;;;5.63;2.17;;;7.20;94.10;;;;;;5114142;28;20349;-61
2022/04/09 07:58:27;;;;;;;7.47;2.55;;;7.10;94.00;;;;;;5113716;28;20199;-59
2022/04/09 08:00:54;;;;;;;6.57;2.80;;;7.20;94.30;;;;;;5114429;28;20203;-60
2022/04/09 08:03:21;;;;;;;6.45;2.17;;;7.30;94.30;;;;;;5113981;28;20199;-59
2022/04/09 08:05:48;;;;;;;7.57;2.50;;;7.30;93.70;;;;;;5113863;28;20556;-61
2022/04/09 08:08:15;;;;;;;5.75;2.20;;;7.30;93.40;;;;;;5113944;28;20204;-60
2022/04/09 08:10:44;;;;;;;5.75;2.20;;;7.40;93.20;;;;;;5113534;28;20234;-60
2022/04/09 08:13:11;;;;;;;4.90;1.80;;;7.50;92.90;;;;;;5114043;28;20210;-61
2022/04/09 08:15:39;;;;;;;9.57;2.40;;;7.50;92.50;;;;;;5113889;28;20231;-61
2022/04/09 08:18:06;;;;;;;6.57;3.15;;;7.50;92.30;;;;;;5114009;28;20208;-61
2022/04/09 08:20:34;;;;;;;4.05;1.90;;;7.50;92.60;;;;;;5114370;28;20195;-59
2022/04/09 08:23:01;;;;;;;4.75;1.65;;;7.70;92.30;;;;;;5115078;28;20203;-60
2022/04/09 08:25:28;;;;;;;4.72;2.28;;;7.80;90.90;;;;;;5114738;28;20594;-60
2022/04/09 08:27:57;;;;;;;5.05;2.22;;;7.90;90.60;;;;;;5114244;28;20698;-60
2022/04/09 08:30:24;;;;;;;4.93;1.73;;;7.90;90.40;;;;;;5114065;28;20242;-60
2022/04/09 08:32:54;;;;;;;6.18;2.97;;;7.90;89.60;;;;;;5114667;28;20200;-59
2022/04/09 08:35:22;;;;;;;4.97;2.58;;;8.00;89.60;;;;;;5114142;28;20230;-61
2022/04/09 08:37:55;;;;;;;1.70;1.60;;;8.30;88.60;;;;;;5113431;28;20196;-60
2022/04/09 08:40:23;;;;;;;5.00;1.98;;;8.30;84.50;;;;;;5113332;28;20668;-60
2022/04/09 08:42:50;;;;;;;7.18;2.20;;;8.30;84.00;;;;;;5114365;28;20701;-59
2022/04/09 08:45:19;;;;;;;3.22;1.45;;;8.30;83.40;;;;;;5116348;28;20224;-60
2022/04/09 08:47:46;;;;;;;8.23;1.98;;;8.20;82.10;;;;;;5117447;28;20206;-60
2022/04/09 08:50:15;;;;;;;6.40;1.90;;;8.20;82.00;;;;;;5121763;28;20246;-60
2022/04/09 08:52:44;;;;;;;4.15;1.80;;;8.10;80.70;;;;;;5125327;28;20207;-60
2022/04/09 08:55:12;;;;;;;11.20;2.08;;;8.20;80.20;;;;;;5121195;28;20667;-59
2022/04/09 08:57:40;;;;;;;5.50;1.70;;;8.40;80.00;;;;;;5123020;28;20260;-60
2022/04/09 09:00:10;;;;;;;4.78;1.95;;;8.60;78.40;;;;;;5129207;28;20203;-60
2022/04/09 09:02:39;;;;;;;1.83;1.17;;;8.70;77.30;;;;;;5133528;28;20214;-60
2022/04/09 09:05:06;;;;;;;7.22;1.83;;;8.80;77.30;;;;;;5130236;28;20235;-59
2022/04/09 09:07:46;;;;;;;7.50;2.05;;;8.70;77.50;;;;;;5117164;28;20231;-60
2022/04/09 09:10:18;;;;;;;4.70;1.90;;;8.70;78.50;;;;;;5117054;28;20258;-60
2022/04/09 09:12:58;;;;;;;5.15;2.13;;;8.80;77.30;;;;;;5121082;28;20231;-61
2022/04/09 09:15:25;;;;;;;6.40;1.70;;;8.80;76.80;;;;;;5123647;28;20219;-61
2022/04/09 09:17:58;;;;;;;4.38;1.85;;;8.70;76.70;;;;;;5120453;28;20572;-59
2022/04/09 09:20:25;;;;;;;8.10;2.22;;;8.70;73.80;;;;;;5116939;28;20188;-61
2022/04/09 09:22:53;;;;;;;4.80;1.42;;;8.60;73.50;;;;;;5117186;28;20299;-60
2022/04/09 09:25:20;;;;;;;6.68;1.85;;;8.60;73.10;;;;;;5116902;28;20226;-61
2022/04/09 09:27:57;;;;;;;4.30;1.45;;;8.70;72.20;;;;;;5116885;28;20196;-59
2022/04/09 09:30:24;;;;;;;3.15;1.08;;;8.80;67.60;;;;;;5117778;28;20207;-60
2022/04/09 09:33:09;;;;;;;4.15;1.67;;;9.10;66.10;;;;;;5117014;28;20214;-59
2022/04/09 09:35:53;;;;;;;3.28;1.20;;;9.30;63.40;;;;;;5116652;28;20729;-60
2022/04/09 09:38:23;;;;;;;4.45;1.25;;;9.40;62.30;;;;;;5117972;28;20199;-60
2022/04/09 09:40:50;;;;;;;2.05;1.13;;;9.30;62.30;;;;;;5117133;28;20208;-61
2022/04/09 09:43:18;;;;;;;4.82;1.23;;;9.20;62.80;;;;;;5117030;28;20199;-60
2022/04/09 09:45:45;;;;;;;4.15;1.85;;;9.00;63.90;;;;;;5116407;28;20231;-62
2022/04/09 09:48:25;;;;;;;3.65;1.45;;;8.70;68.10;;;;;;5123338;28;20222;-61
2022/04/09 09:50:53;;;;;;;3.03;1.20;;;8.70;70.80;;;;;;5130170;28;20208;-62
2022/04/09 09:53:29;;;;;;;6.28;1.85;;;8.80;70.40;;;;;;5126944;28;20207;-62
2022/04/09 09:55:57;;;;;;;4.30;1.50;;;8.90;67.80;;;;;;5125007;28;20223;-61
2022/04/09 09:58:25;;;;;;;6.72;2.30;;;8.80;67.10;;;;;;5116013;28;20256;-61
2022/04/09 10:00:52;;;;;;;4.30;1.40;;;8.60;70.20;;;;;;5116324;28;20199;-62
2022/04/09 10:03:20;;;;;;;2.40;1.42;;;8.30;73.40;;;;;;5116006;28;20203;-63
2022/04/09 10:05:50;;;;;;;3.38;1.58;;;8.10;76.20;;;;;;5115755;28;20721;-63
2022/04/09 10:08:18;;;;;;;3.90;1.65;;;8.00;77.40;;;;;;5116135;28;20180;-64
2022/04/09 10:10:48;;;;;;;1.63;1.20;;;8.00;79.20;;;;;;5116239;28;20220;-61
2022/04/09 10:13:20;;;;;;;1.27;1.02;;;7.70;85.00;;;;;;5115971;28;20194;-62
2022/04/09 10:15:50;;;;;;;2.45;1.33;;;7.10;91.20;;;;;;5115616;28;20215;-62
2022/04/09 10:18:21;;;;;;;2.35;1.20;;;6.70;94.30;;;;;;5116091;28;20207;-60
2022/04/09 10:20:53;;;;;;;2.00;1.30;;;6.50;97.40;;;;;;5115779;28;20188;-62
2022/04/09 10:23:22;;;;;;;2.08;1.23;;;6.50;99.30;;;;;;5115602;28;20215;-60
2022/04/09 10:25:52;;;;;;;3.30;1.52;;;6.50;99.90;;;;;;5115610;28;20227;-61
2022/04/09 10:28:36;;;;;;;4.97;1.85;;;6.70;99.90;;;;;;5115374;28;20206;-61
2022/04/09 10:31:23;;;;;;;3.97;1.60;;;6.80;99.90;;;;;;5114079;28;20629;-62
2022/04/09 10:33:55;;;;;;;1.75;1.20;;;6.80;99.90;;;;;;5115451;28;20200;-61
2022/04/09 10:36:55;;;;;;;3.47;1.63;;;6.90;99.90;;;;;;5115735;28;20215;-61
2022/04/09 10:39:26;;;;;;;1.83;1.10;;;7.00;99.90;;;;;;5115392;28;20184;-62
2022/04/09 10:41:54;;;;;;;5.70;2.78;;;7.00;99.10;;;;;;5116055;28;20185;-62
2022/04/09 10:44:53;;;;;;;1.50;1.15;;;7.10;98.20;;;;;;5115589;28;20257;-64
2022/04/09 10:47:20;;;;;;;1.58;1.10;;;7.20;97.70;;;;;;5115269;28;20303;-60
2022/04/09 10:50:11;;;;;;;2.10;1.10;;;7.40;97.70;;;;;;5114837;28;20216;-61
2022/04/09 10:52:40;;;;;;;1.73;1.25;;;7.70;95.90;;;;;;5114876;28;20287;-62
2022/04/09 10:55:30;;;;;;;4.55;2.10;;;7.90;95.20;;;;;;5116559;28;20220;-60
2022/04/09 10:58:04;;;;;;;2.30;1.63;;;8.10;94.50;;;;;;5117890;28;20190;-61
2022/04/09 11:00:33;;;;;;;4.70;2.20;;;8.10;93.80;;;;;;5117059;28;20184;-62
2022/04/09 11:03:15;;;;;;;2.83;2.15;;;8.10;93.60;;;;;;5119344;28;20195;-63
2022/04/09 11:05:43;;;;;;;5.15;1.75;;;8.00;93.20;;;;;;5119069;28;20467;-62
2022/04/09 11:08:14;;;;;;;5.03;1.83;;;7.50;94.10;;;;;;5120942;28;20204;-62
2022/04/09 11:10:43;;;;;;;2.67;1.85;;;6.50;96.40;;;;;;5120417;28;20199;-61
2022/04/09 11:13:12;;;;;;;2.33;1.65;;;5.70;99.90;;;;;;5121716;28;20200;-61
2022/04/09 11:15:40;;;;;;;2.65;1.90;;;5.30;99.90;;;;;;5121434;28;20308;-61
2022/04/09 11:18:07;;;;;;;5.13;2.08;;;5.10;99.90;;;;;;5121002;28;20268;-61
2022/04/09 11:20:36;;;;;;;6.28;2.05;;;5.10;99.90;;;;;;5120000;28;20200;-61
2022/04/09 11:23:12;;;;;;;3.83;2.10;;;5.20;99.90;;;;;;5118731;28;20728;-62
2022/04/09 11:25:43;;;;;;;4.32;1.58;;;5.40;99.90;;;;;;5119063;28;20656;-62
2022/04/09 11:28:13;;;;;;;3.15;1.80;;;5.60;99.90;;;;;;5120510;28;20245;-61
2022/04/09 11:30:53;;;;;;;3.20;1.50;;;5.80;99.90;;;;;;5121695;28;20219;-60
2022/04/09 11:33:20;;;;;;;1.70;1.40;;;6.10;99.90;;;;;;5130528;28;20219;-61
2022/04/09 11:35:47;;;;;;;4.47;1.98;;;6.40;99.90;;;;;;5130359;28;20219;-62
2022/04/09 11:38:15;;;;;;;1.58;1.10;;;6.70;99.90;;;;;;5130392;28;20212;-60
2022/04/09 11:40:47;;;;;;;4.50;1.52;;;7.10;99.90;;;;;;5130689;28;20219;-62
2022/04/09 11:43:15;;;;;;;3.53;1.65;;;7.50;99.90;;;;;;5130576;28;20188;-62
2022/04/09 11:45:42;;;;;;;3.83;2.05;;;7.60;99.90;;;;;;5117892;28;20231;-62
2022/04/09 11:48:15;;;;;;;1.75;1.20;;;7.90;99.90;;;;;;5117158;28;20667;-62
2022/04/09 11:50:42;;;;;;;4.68;1.60;;;8.10;99.90;;;;;;5117622;28;20226;-62
2022/04/09 11:53:10;;;;;;;2.70;1.40;;;8.30;99.90;;;;;;5116817;28;20550;-60
2022/04/09 11:55:38;;;;;;;4.05;1.65;;;8.50;99.90;;;;;;5118480;28;20215;-60
2022/04/09 11:58:07;;;;;;;2.80;1.63;;;8.80;99.90;;;;;;5118145;28;20207;-60
2022/04/09 12:00:37;;;;;;;4.15;2.00;;;9.10;99.40;;;;;;5117944;28;20235;-61
2022/04/09 12:03:04;;;;;;;4.50;1.63;;;9.30;97.40;;;;;;5117551;28;20207;-61
2022/04/09 12:05:36;;;;;;;4.25;2.10;;;9.40;94.90;;;;;;5118216;28;20215;-61
2022/04/09 12:08:04;;;;;;;4.15;1.15;;;9.20;94.50;;;;;;5116390;28;20188;-61
2022/04/09 12:10:31;;;;;;;3.97;1.70;;;8.40;90.90;;;;;;5117468;28;20223;-63
2022/04/09 12:13:01;;;;;;;1.70;1.25;;;8.10;90.10;;;;;;5115741;28;20675;-62
2022/04/09 12:15:35;;;;;;;3.90;1.60;;;6.40;92.50;;;;;;5117052;28;20583;-61
2022/04/09 12:18:05;;;;;;;4.10;1.70;;;5.10;98.90;;;;;;5117819;28;20183;-61
2022/04/09 12:20:34;;;;;;;3.33;1.90;;;4.40;99.90;;;;;;5116884;28;20196;-62
2022/04/09 12:23:03;;;;;;;5.30;1.85;;;4.00;99.90;;;;;;5116313;28;20667;-60
2022/04/09 12:25:35;;;;;;;5.93;2.45;;;3.80;99.90;;;;;;5115191;28;20231;-61
2022/04/09 12:28:04;;;;;;;4.47;2.03;;;3.80;99.90;;;;;;5116140;28;20202;-62
2022/04/09 12:30:41;;;;;;;3.60;2.10;;;3.80;99.90;;;;;;5117970;28;20223;-61
2022/04/09 12:33:10;;;;;;;4.43;2.40;;;4.00;99.90;;;;;;5121350;28;20274;-61
2022/04/09 12:35:38;;;;;;;4.85;2.25;;;4.30;99.90;;;;;;5118827;28;20683;-63
2022/04/09 12:38:05;;;;;;;3.60;1.90;;;4.70;99.90;;;;;;5118639;28;20210;-62
2022/04/09 12:40:33;;;;;;;3.75;2.30;;;5.00;99.90;;;;;;5118475;28;20207;-62
2022/04/09 12:43:00;;;;;;;4.75;1.88;;;5.20;99.90;;;;;;5118607;28;20199;-62
2022/04/09 12:45:28;;;;;;;2.63;1.80;;;5.50;99.90;;;;;;5118516;28;20258;-60
2022/04/09 12:47:58;;;;;;;4.38;2.03;;;5.80;99.90;;;;;;5118802;28;20203;-62
2022/04/09 12:50:27;;;;;;;12.02;1.92;;;6.00;99.90;;;;;;5118856;28;20222;-62
2022/04/09 12:52:55;;;;;;;5.90;2.38;;;6.40;99.90;;;;;;5118997;28;20200;-63
2022/04/09 12:55:25;;;;;;;6.05;2.40;;;6.50;99.90;;;;;;5118199;28;20219;-62
2022/04/09 12:57:52;;;;;;;5.80;1.90;;;6.40;99.90;;;;;;5118151;28;20219;-60
2022/04/09 13:00:21;;;;;;;3.13;1.50;;;6.20;99.90;;;;;;5118087;28;20206;-62
2022/04/09 13:02:49;;;;;;;1.75;1.65;;;6.00;99.90;;;;;;5118315;28;20215;-63
2022/04/09 13:05:19;;;;;;;3.03;1.80;;;5.80;99.90;;;;;;5118825;28;20220;-63